sensor_id;sensor_type;location;lat;lon;timestamp;P1;durP1;ratioP1;P2;durP2;ratioP2
12721;SDS011;6425;50.316;8.114;2024-01-16T00:00:00;4.1;;;1.8;;
12721;SDS011;6425;50.316;8.114;2024-01-16T00:03:00;8.3;;;2.4;;
12721;SDS011;6425;50.316;8.114;2024-01-16T00:06:00;9.5;;;2.3;;
12721;SDS011;6425;50.316;8.114;2024-01-16T00:09:00;9.5;;;2.3;;
12721;SDS011;6425;50.316;8.114;2024-01-16T00:12:01;6;;;2.1;;
12721;SDS011;6425;50.316;8.114;2024-01-16T00:15:00;6;;;2.1;;
12721;SDS011;6425;50.316;8.114;2024-01-16T00:18:00;7.7;;;2.6;;
12721;SDS011;6425;50.316;8.114;2024-01-16T00:21:00;6.2;;;2.2;;
12721;SDS011;6425;50.316;8.114;2024-01-16T00:24:00;6.2;;;2.2;;
12721;SDS011;6425;50.316;8.114;2024-01-16T00:27:00;3.6;;;1.9;;
12721;SDS011;6425;50.316;8.114;2024-01-16T00:30:00;3.6;;;1.9;;
12721;SDS011;6425;50.316;8.114;2024-01-16T00:33:00;7.4;;;2;;
12721;SDS011;6425;50.316;8.114;2024-01-16T00:36:01;7.9;;;3.2;;
12721;SDS011;6425;50.316;8.114;2024-01-16T00:39:00;7.9;;;3.2;;
12721;SDS011;6425;50.316;8.114;2024-01-16T00:42:00;7;;;2.8;;
12721;SDS011;6425;50.316;8.114;2024-01-16T00:45:00;5.5;;;2.4;;
12721;SDS011;6425;50.316;8.114;2024-01-16T00:48:00;5.5;;;2.4;;
12721;SDS011;6425;50.316;8.114;2024-01-16T00:51:00;10.1;;;3.1;;
12721;SDS011;6425;50.316;8.114;2024-01-16T00:54:00;10.1;;;3.1;;
12721;SDS011;6425;50.316;8.114;2024-01-16T00:57:00;7.8;;;2.5;;
12721;SDS011;6425;50.316;8.114;2024-01-16T01:00:00;7.9;;;2.8;;
12721;SDS011;6425;50.316;8.114;2024-01-16T01:03:00;7.9;;;2.8;;
12721;SDS011;6425;50.316;8.114;2024-01-16T01:06:00;7.3;;;2.5;;
12721;SDS011;6425;50.316;8.114;2024-01-16T01:09:00;7.3;;;2.5;;
12721;SDS011;6425;50.316;8.114;2024-01-16T01:12:00;7.1;;;3;;
12721;SDS011;6425;50.316;8.114;2024-01-16T01:15:00;6.5;;;2.5;;
12721;SDS011;6425;50.316;8.114;2024-01-16T01:18:00;6.5;;;2.5;;
12721;SDS011;6425;50.316;8.114;2024-01-16T01:21:00;7.5;;;4;;
12721;SDS011;6425;50.316;8.114;2024-01-16T01:24:00;7.5;;;4;;
12721;SDS011;6425;50.316;8.114;2024-01-16T01:27:00;6.9;;;2.8;;
12721;SDS011;6425;50.316;8.114;2024-01-16T01:30:00;6.1;;;2.8;;
12721;SDS011;6425;50.316;8.114;2024-01-16T01:33:00;6.1;;;2.8;;
12721;SDS011;6425;50.316;8.114;2024-01-16T01:36:01;5.7;;;2.5;;
12721;SDS011;6425;50.316;8.114;2024-01-16T01:39:00;5.7;;;2.5;;
12721;SDS011;6425;50.316;8.114;2024-01-16T01:42:00;8.5;;;3.2;;
12721;SDS011;6425;50.316;8.114;2024-01-16T01:45:00;7.7;;;3;;
12721;SDS011;6425;50.316;8.114;2024-01-16T01:48:00;7.7;;;3;;
12721;SDS011;6425;50.316;8.114;2024-01-16T01:51:00;8.2;;;2.7;;
12721;SDS011;6425;50.316;8.114;2024-01-16T01:54:00;8.2;;;2.7;;
12721;SDS011;6425;50.316;8.114;2024-01-16T01:57:00;8.5;;;3.7;;
12721;SDS011;6425;50.316;8.114;2024-01-16T02:00:00;12.1;;;4.5;;
12721;SDS011;6425;50.316;8.114;2024-01-16T02:03:00;12.1;;;4.5;;
12721;SDS011;6425;50.316;8.114;2024-01-16T02:06:00;11.4;;;4.9;;
12721;SDS011;6425;50.316;8.114;2024-01-16T02:09:00;11.4;;;4.9;;
12721;SDS011;6425;50.316;8.114;2024-01-16T02:12:00;10;;;4.6;;
12721;SDS011;6425;50.316;8.114;2024-01-16T02:15:00;10.4;;;5.1;;
12721;SDS011;6425;50.316;8.114;2024-01-16T02:18:00;10.4;;;5.1;;
12721;SDS011;6425;50.316;8.114;2024-01-16T02:21:00;10.3;;;4.6;;
12721;SDS011;6425;50.316;8.114;2024-01-16T02:24:00;10.3;;;4.6;;
12721;SDS011;6425;50.316;8.114;2024-01-16T02:27:00;13.1;;;5.6;;
12721;SDS011;6425;50.316;8.114;2024-01-16T02:30:00;8.4;;;4.9;;
12721;SDS011;6425;50.316;8.114;2024-01-16T02:33:00;8.4;;;4.9;;
12721;SDS011;6425;50.316;8.114;2024-01-16T02:36:00;12.6;;;5.2;;
12721;SDS011;6425;50.316;8.114;2024-01-16T02:39:00;12.6;;;5.2;;
12721;SDS011;6425;50.316;8.114;2024-01-16T02:42:00;9.4;;;4.9;;
12721;SDS011;6425;50.316;8.114;2024-01-16T02:45:00;12;;;5.7;;
12721;SDS011;6425;50.316;8.114;2024-01-16T02:48:00;12;;;5.7;;
12721;SDS011;6425;50.316;8.114;2024-01-16T02:51:00;10.4;;;4.7;;
12721;SDS011;6425;50.316;8.114;2024-01-16T02:54:00;10.6;;;5;;
12721;SDS011;6425;50.316;8.114;2024-01-16T02:57:00;10.9;;;5.4;;
12721;SDS011;6425;50.316;8.114;2024-01-16T03:00:01;6.4;;;3.8;;
12721;SDS011;6425;50.316;8.114;2024-01-16T03:03:00;6.4;;;3.8;;
12721;SDS011;6425;50.316;8.114;2024-01-16T03:06:00;10.7;;;3.3;;
12721;SDS011;6425;50.316;8.114;2024-01-16T03:09:00;6.1;;;3.1;;
12721;SDS011;6425;50.316;8.114;2024-01-16T03:12:00;6.1;;;3.1;;
12721;SDS011;6425;50.316;8.114;2024-01-16T03:15:00;11.5;;;4.1;;
12721;SDS011;6425;50.316;8.114;2024-01-16T03:18:00;11.5;;;4.1;;
12721;SDS011;6425;50.316;8.114;2024-01-16T03:21:00;12.8;;;4;;
12721;SDS011;6425;50.316;8.114;2024-01-16T03:24:01;7.8;;;3.5;;
12721;SDS011;6425;50.316;8.114;2024-01-16T03:27:00;7.8;;;3.5;;
12721;SDS011;6425;50.316;8.114;2024-01-16T03:30:00;8;;;3.6;;
12721;SDS011;6425;50.316;8.114;2024-01-16T03:33:00;8;;;3.6;;
12721;SDS011;6425;50.316;8.114;2024-01-16T03:36:01;7.4;;;3.5;;
12721;SDS011;6425;50.316;8.114;2024-01-16T03:39:00;8.4;;;3.2;;
12721;SDS011;6425;50.316;8.114;2024-01-16T03:42:00;8.4;;;3.2;;
12721;SDS011;6425;50.316;8.114;2024-01-16T03:45:00;9.2;;;3.6;;
12721;SDS011;6425;50.316;8.114;2024-01-16T03:48:01;9.2;;;3.6;;
12721;SDS011;6425;50.316;8.114;2024-01-16T03:51:00;8.8;;;3.3;;
12721;SDS011;6425;50.316;8.114;2024-01-16T03:54:00;8.9;;;3.6;;
12721;SDS011;6425;50.316;8.114;2024-01-16T03:57:00;8.9;;;3.6;;
12721;SDS011;6425;50.316;8.114;2024-01-16T04:00:00;8.3;;;3.9;;
12721;SDS011;6425;50.316;8.114;2024-01-16T04:03:00;8.3;;;3.9;;
12721;SDS011;6425;50.316;8.114;2024-01-16T04:06:00;7;;;3.5;;
12721;SDS011;6425;50.316;8.114;2024-01-16T04:09:00;11.7;;;3.3;;
12721;SDS011;6425;50.316;8.114;2024-01-16T04:12:00;11.7;;;3.3;;
12721;SDS011;6425;50.316;8.114;2024-01-16T04:15:00;12.7;;;4.2;;
12721;SDS011;6425;50.316;8.114;2024-01-16T04:18:00;12.7;;;4.2;;
12721;SDS011;6425;50.316;8.114;2024-01-16T04:21:00;10.5;;;3.6;;
12721;SDS011;6425;50.316;8.114;2024-01-16T04:24:00;10.9;;;3.5;;
12721;SDS011;6425;50.316;8.114;2024-01-16T04:27:00;10.9;;;3.5;;
12721;SDS011;6425;50.316;8.114;2024-01-16T04:30:00;12.9;;;3.9;;
12721;SDS011;6425;50.316;8.114;2024-01-16T04:33:00;12.9;;;3.9;;
12721;SDS011;6425;50.316;8.114;2024-01-16T04:36:00;8.2;;;3.6;;
12721;SDS011;6425;50.316;8.114;2024-01-16T04:39:00;6.9;;;3.3;;
12721;SDS011;6425;50.316;8.114;2024-01-16T04:42:00;6.9;;;3.3;;
12721;SDS011;6425;50.316;8.114;2024-01-16T04:45:00;8.7;;;3.2;;
12721;SDS011;6425;50.316;8.114;2024-01-16T04:48:00;8.7;;;3.2;;
12721;SDS011;6425;50.316;8.114;2024-01-16T04:51:00;11;;;3.8;;
12721;SDS011;6425;50.316;8.114;2024-01-16T04:54:00;9.8;;;4.4;;
12721;SDS011;6425;50.316;8.114;2024-01-16T04:57:00;9.8;;;4.4;;
12721;SDS011;6425;50.316;8.114;2024-01-16T05:00:00;11.3;;;3.7;;
12721;SDS011;6425;50.316;8.114;2024-01-16T05:03:01;11.3;;;3.7;;
12721;SDS011;6425;50.316;8.114;2024-01-16T05:06:00;11.4;;;4.2;;
12721;SDS011;6425;50.316;8.114;2024-01-16T05:09:00;10;;;4.5;;
12721;SDS011;6425;50.316;8.114;2024-01-16T05:12:00;10;;;4.5;;
12721;SDS011;6425;50.316;8.114;2024-01-16T05:15:00;14.9;;;4.5;;
12721;SDS011;6425;50.316;8.114;2024-01-16T05:18:00;12.5;;;4.4;;
12721;SDS011;6425;50.316;8.114;2024-01-16T05:21:00;12.5;;;4.4;;
12721;SDS011;6425;50.316;8.114;2024-01-16T05:24:00;8.9;;;3.8;;
12721;SDS011;6425;50.316;8.114;2024-01-16T05:27:00;8.9;;;3.8;;
12721;SDS011;6425;50.316;8.114;2024-01-16T05:30:00;10.6;;;4.4;;
12721;SDS011;6425;50.316;8.114;2024-01-16T05:33:00;11.4;;;3.9;;
12721;SDS011;6425;50.316;8.114;2024-01-16T05:36:00;11.4;;;3.9;;
12721;SDS011;6425;50.316;8.114;2024-01-16T05:39:00;11.7;;;4.2;;
12721;SDS011;6425;50.316;8.114;2024-01-16T05:42:00;11.7;;;4.2;;
12721;SDS011;6425;50.316;8.114;2024-01-16T05:45:00;8.7;;;4.4;;
12721;SDS011;6425;50.316;8.114;2024-01-16T05:48:00;6.8;;;3.2;;
12721;SDS011;6425;50.316;8.114;2024-01-16T05:51:00;6.8;;;3.2;;
12721;SDS011;6425;50.316;8.114;2024-01-16T05:54:00;10.7;;;3.8;;
12721;SDS011;6425;50.316;8.114;2024-01-16T05:57:00;10.7;;;3.8;;
12721;SDS011;6425;50.316;8.114;2024-01-16T06:00:01;6.8;;;3.8;;
12721;SDS011;6425;50.316;8.114;2024-01-16T06:03:00;8.6;;;3.1;;
12721;SDS011;6425;50.316;8.114;2024-01-16T06:06:00;8.6;;;3.1;;
12721;SDS011;6425;50.316;8.114;2024-01-16T06:09:00;12.5;;;3.8;;
12721;SDS011;6425;50.316;8.114;2024-01-16T06:12:00;12.5;;;3.8;;
12721;SDS011;6425;50.316;8.114;2024-01-16T06:15:00;7.6;;;4.1;;
12721;SDS011;6425;50.316;8.114;2024-01-16T06:18:00;8.7;;;4.3;;
12721;SDS011;6425;50.316;8.114;2024-01-16T06:21:00;8.7;;;4.3;;
12721;SDS011;6425;50.316;8.114;2024-01-16T06:24:00;8.4;;;3.2;;
12721;SDS011;6425;50.316;8.114;2024-01-16T06:27:00;8.4;;;3.2;;
12721;SDS011;6425;50.316;8.114;2024-01-16T06:30:00;7.3;;;3.4;;
12721;SDS011;6425;50.316;8.114;2024-01-16T06:33:00;10.2;;;3.9;;
12721;SDS011;6425;50.316;8.114;2024-01-16T06:36:00;10.2;;;3.9;;
12721;SDS011;6425;50.316;8.114;2024-01-16T06:39:00;13.9;;;3.9;;
12721;SDS011;6425;50.316;8.114;2024-01-16T06:42:00;13.9;;;3.9;;
12721;SDS011;6425;50.316;8.114;2024-01-16T06:45:00;9.5;;;3.3;;
12721;SDS011;6425;50.316;8.114;2024-01-16T06:48:00;9.2;;;3.3;;
12721;SDS011;6425;50.316;8.114;2024-01-16T06:51:00;9.2;;;3.3;;
12721;SDS011;6425;50.316;8.114;2024-01-16T06:54:00;8.8;;;3.3;;
12721;SDS011;6425;50.316;8.114;2024-01-16T06:57:00;8.8;;;3.3;;
12721;SDS011;6425;50.316;8.114;2024-01-16T07:00:00;7.2;;;3.3;;
12721;SDS011;6425;50.316;8.114;2024-01-16T07:03:00;9.5;;;3.4;;
12721;SDS011;6425;50.316;8.114;2024-01-16T07:06:00;9.5;;;3.4;;
12721;SDS011;6425;50.316;8.114;2024-01-16T07:09:00;9.1;;;3.2;;
12721;SDS011;6425;50.316;8.114;2024-01-16T07:12:00;9.1;;;3.2;;
12721;SDS011;6425;50.316;8.114;2024-01-16T07:15:00;11.9;;;4.9;;
12721;SDS011;6425;50.316;8.114;2024-01-16T07:18:00;8.1;;;3.3;;
12721;SDS011;6425;50.316;8.114;2024-01-16T07:21:00;8.1;;;3.3;;
12721;SDS011;6425;50.316;8.114;2024-01-16T07:24:00;10.1;;;3.2;;
12721;SDS011;6425;50.316;8.114;2024-01-16T07:27:00;9.9;;;3.1;;
12721;SDS011;6425;50.316;8.114;2024-01-16T07:30:00;9.3;;;3;;
12721;SDS011;6425;50.316;8.114;2024-01-16T07:33:00;7.5;;;3;;
12721;SDS011;6425;50.316;8.114;2024-01-16T07:36:00;7.5;;;3;;
12721;SDS011;6425;50.316;8.114;2024-01-16T07:39:00;6.4;;;3.1;;
12721;SDS011;6425;50.316;8.114;2024-01-16T07:42:00;11.3;;;3.2;;
12721;SDS011;6425;50.316;8.114;2024-01-16T07:45:00;11.3;;;3.2;;
12721;SDS011;6425;50.316;8.114;2024-01-16T07:48:00;11.2;;;3;;
12721;SDS011;6425;50.316;8.114;2024-01-16T07:51:00;11.2;;;3;;
12721;SDS011;6425;50.316;8.114;2024-01-16T07:54:07;8.7;;;3.2;;
12721;SDS011;6425;50.316;8.114;2024-01-16T07:57:00;10.4;;;3.2;;
12721;SDS011;6425;50.316;8.114;2024-01-16T08:00:00;10.4;;;3.2;;
12721;SDS011;6425;50.316;8.114;2024-01-16T08:03:00;7.5;;;2.8;;
12721;SDS011;6425;50.316;8.114;2024-01-16T08:06:00;7.5;;;2.8;;
12721;SDS011;6425;50.316;8.114;2024-01-16T08:09:00;8.5;;;3.2;;
12721;SDS011;6425;50.316;8.114;2024-01-16T08:12:00;6.1;;;3.1;;
12721;SDS011;6425;50.316;8.114;2024-01-16T08:15:00;6.1;;;3.1;;
12721;SDS011;6425;50.316;8.114;2024-01-16T08:18:00;7.2;;;2.6;;
12721;SDS011;6425;50.316;8.114;2024-01-16T08:21:00;7.2;;;2.6;;
12721;SDS011;6425;50.316;8.114;2024-01-16T08:24:00;9.9;;;4.2;;
12721;SDS011;6425;50.316;8.114;2024-01-16T08:27:00;10.8;;;3.9;;
12721;SDS011;6425;50.316;8.114;2024-01-16T08:30:00;10.8;;;3.9;;
12721;SDS011;6425;50.316;8.114;2024-01-16T08:33:00;4.6;;;3.1;;
12721;SDS011;6425;50.316;8.114;2024-01-16T08:36:00;4.6;;;3.1;;
12721;SDS011;6425;50.316;8.114;2024-01-16T08:39:00;9;;;4.4;;
12721;SDS011;6425;50.316;8.114;2024-01-16T08:42:00;14.3;;;5.7;;
12721;SDS011;6425;50.316;8.114;2024-01-16T08:45:00;14.3;;;5.7;;
12721;SDS011;6425;50.316;8.114;2024-01-16T08:48:01;16;;;5.4;;
12721;SDS011;6425;50.316;8.114;2024-01-16T08:51:00;16;;;5.4;;
12721;SDS011;6425;50.316;8.114;2024-01-16T08:54:00;12.2;;;4.2;;
12721;SDS011;6425;50.316;8.114;2024-01-16T08:57:00;5.9;;;2.8;;
12721;SDS011;6425;50.316;8.114;2024-01-16T09:00:00;5.9;;;2.8;;
12721;SDS011;6425;50.316;8.114;2024-01-16T09:03:00;4.6;;;2.7;;
12721;SDS011;6425;50.316;8.114;2024-01-16T09:06:00;4.6;;;2.7;;
12721;SDS011;6425;50.316;8.114;2024-01-16T09:09:00;6.5;;;3;;
12721;SDS011;6425;50.316;8.114;2024-01-16T09:12:00;7.3;;;3;;
12721;SDS011;6425;50.316;8.114;2024-01-16T09:15:00;7.3;;;3;;
12721;SDS011;6425;50.316;8.114;2024-01-16T09:18:00;8.4;;;3;;
12721;SDS011;6425;50.316;8.114;2024-01-16T09:21:00;8.4;;;3;;
12721;SDS011;6425;50.316;8.114;2024-01-16T09:24:00;6.3;;;2.5;;
12721;SDS011;6425;50.316;8.114;2024-01-16T09:27:00;7;;;2.8;;
12721;SDS011;6425;50.316;8.114;2024-01-16T09:30:00;7;;;2.8;;
12721;SDS011;6425;50.316;8.114;2024-01-16T09:33:00;5;;;2;;
12721;SDS011;6425;50.316;8.114;2024-01-16T09:36:01;5;;;2;;
12721;SDS011;6425;50.316;8.114;2024-01-16T09:39:00;6.4;;;3.2;;
12721;SDS011;6425;50.316;8.114;2024-01-16T09:42:00;3.8;;;2;;
12721;SDS011;6425;50.316;8.114;2024-01-16T09:45:00;3.8;;;2;;
12721;SDS011;6425;50.316;8.114;2024-01-16T09:48:00;6;;;2.6;;
12721;SDS011;6425;50.316;8.114;2024-01-16T09:51:00;5.8;;;2.6;;
12721;SDS011;6425;50.316;8.114;2024-01-16T09:54:00;5.6;;;2.7;;
12721;SDS011;6425;50.316;8.114;2024-01-16T09:57:00;4.7;;;2.7;;
12721;SDS011;6425;50.316;8.114;2024-01-16T10:00:00;4.7;;;2.7;;
12721;SDS011;6425;50.316;8.114;2024-01-16T10:03:00;9.7;;;2.9;;
12721;SDS011;6425;50.316;8.114;2024-01-16T10:06:00;7.7;;;3.4;;
12721;SDS011;6425;50.316;8.114;2024-01-16T10:09:00;7.7;;;3.4;;
12721;SDS011;6425;50.316;8.114;2024-01-16T10:12:00;4.7;;;2.8;;
12721;SDS011;6425;50.316;8.114;2024-01-16T10:15:00;4.7;;;2.8;;
12721;SDS011;6425;50.316;8.114;2024-01-16T10:18:00;7.9;;;3.2;;
12721;SDS011;6425;50.316;8.114;2024-01-16T10:21:00;4.2;;;2.4;;
12721;SDS011;6425;50.316;8.114;2024-01-16T10:24:10;4.2;;;2.4;;
12721;SDS011;6425;50.316;8.114;2024-01-16T10:27:01;6.2;;;2.7;;
12721;SDS011;6425;50.316;8.114;2024-01-16T10:30:00;6.2;;;2.7;;
12721;SDS011;6425;50.316;8.114;2024-01-16T10:33:11;4.5;;;2.8;;
12721;SDS011;6425;50.316;8.114;2024-01-16T10:36:07;3;;;2.7;;
12721;SDS011;6425;50.316;8.114;2024-01-16T10:39:02;3;;;2.7;;
12721;SDS011;6425;50.316;8.114;2024-01-16T10:42:00;5.9;;;3.3;;
12721;SDS011;6425;50.316;8.114;2024-01-16T10:45:00;5.9;;;3.3;;
12721;SDS011;6425;50.316;8.114;2024-01-16T10:48:00;4;;;2.8;;
12721;SDS011;6425;50.316;8.114;2024-01-16T10:51:00;5.2;;;3.2;;
12721;SDS011;6425;50.316;8.114;2024-01-16T10:54:00;5.2;;;3.2;;
12721;SDS011;6425;50.316;8.114;2024-01-16T10:57:00;4.5;;;3.7;;
12721;SDS011;6425;50.316;8.114;2024-01-16T11:00:00;4.5;;;3.7;;
12721;SDS011;6425;50.316;8.114;2024-01-16T11:03:01;6.9;;;3.4;;
12721;SDS011;6425;50.316;8.114;2024-01-16T11:06:00;4.4;;;3.6;;
12721;SDS011;6425;50.316;8.114;2024-01-16T11:09:00;4.4;;;3.6;;
12721;SDS011;6425;50.316;8.114;2024-01-16T11:12:00;6.4;;;3.1;;
12721;SDS011;6425;50.316;8.114;2024-01-16T11:15:00;6.4;;;3.1;;
12721;SDS011;6425;50.316;8.114;2024-01-16T11:18:00;6.9;;;3.3;;
12721;SDS011;6425;50.316;8.114;2024-01-16T11:21:00;4.9;;;3.9;;
12721;SDS011;6425;50.316;8.114;2024-01-16T11:24:00;4.9;;;3.9;;
12721;SDS011;6425;50.316;8.114;2024-01-16T11:27:00;6.9;;;3.7;;
12721;SDS011;6425;50.316;8.114;2024-01-16T11:30:00;6.9;;;3.7;;
12721;SDS011;6425;50.316;8.114;2024-01-16T11:33:00;3.9;;;3.5;;
12721;SDS011;6425;50.316;8.114;2024-01-16T11:36:00;4;;;3.6;;
12721;SDS011;6425;50.316;8.114;2024-01-16T11:39:00;4;;;3.6;;
12721;SDS011;6425;50.316;8.114;2024-01-16T11:42:00;4.1;;;3.7;;
12721;SDS011;6425;50.316;8.114;2024-01-16T11:45:00;4.1;;;3.7;;
12721;SDS011;6425;50.316;8.114;2024-01-16T11:48:07;7;;;4.1;;
12721;SDS011;6425;50.316;8.114;2024-01-16T11:51:00;7.9;;;3.8;;
12721;SDS011;6425;50.316;8.114;2024-01-16T11:54:00;7.9;;;3.8;;
12721;SDS011;6425;50.316;8.114;2024-01-16T11:57:05;4.7;;;3.4;;
12721;SDS011;6425;50.316;8.114;2024-01-16T12:00:01;4.7;;;3.4;;
12721;SDS011;6425;50.316;8.114;2024-01-16T12:03:00;9.2;;;4.6;;
12721;SDS011;6425;50.316;8.114;2024-01-16T12:06:00;7.2;;;3.9;;
12721;SDS011;6425;50.316;8.114;2024-01-16T12:09:11;7.2;;;3.9;;
12721;SDS011;6425;50.316;8.114;2024-01-16T12:12:01;7.6;;;4.3;;
12721;SDS011;6425;50.316;8.114;2024-01-16T12:15:00;6.7;;;4.3;;
12721;SDS011;6425;50.316;8.114;2024-01-16T12:18:00;6.7;;;4.3;;
12721;SDS011;6425;50.316;8.114;2024-01-16T12:21:07;5.5;;;4.2;;
12721;SDS011;6425;50.316;8.114;2024-01-16T12:24:01;5.5;;;4.2;;
12721;SDS011;6425;50.316;8.114;2024-01-16T12:27:00;7.6;;;4;;
12721;SDS011;6425;50.316;8.114;2024-01-16T12:30:07;6.1;;;4;;
12721;SDS011;6425;50.316;8.114;2024-01-16T12:33:03;6.1;;;4;;
12721;SDS011;6425;50.316;8.114;2024-01-16T12:36:00;11.8;;;4.8;;
12721;SDS011;6425;50.316;8.114;2024-01-16T12:39:00;11.8;;;4.8;;
12721;SDS011;6425;50.316;8.114;2024-01-16T12:42:00;5.8;;;3.4;;
12721;SDS011;6425;50.316;8.114;2024-01-16T12:45:00;7;;;3.8;;
12721;SDS011;6425;50.316;8.114;2024-01-16T12:48:00;7;;;3.8;;
12721;SDS011;6425;50.316;8.114;2024-01-16T12:51:00;9.4;;;3.8;;
12721;SDS011;6425;50.316;8.114;2024-01-16T12:54:16;9.4;;;3.8;;
12721;SDS011;6425;50.316;8.114;2024-01-16T12:57:00;4.5;;;3.6;;
12721;SDS011;6425;50.316;8.114;2024-01-16T13:00:00;6.7;;;3.4;;
12721;SDS011;6425;50.316;8.114;2024-01-16T13:03:00;6.7;;;3.4;;
12721;SDS011;6425;50.316;8.114;2024-01-16T13:06:00;4;;;3.2;;
12721;SDS011;6425;50.316;8.114;2024-01-16T13:09:04;4;;;3.2;;
12721;SDS011;6425;50.316;8.114;2024-01-16T13:12:00;4.1;;;3.3;;
12721;SDS011;6425;50.316;8.114;2024-01-16T13:15:00;7.7;;;3.3;;
12721;SDS011;6425;50.316;8.114;2024-01-16T13:18:00;7.7;;;3.3;;
12721;SDS011;6425;50.316;8.114;2024-01-16T13:21:00;6.2;;;4.2;;
12721;SDS011;6425;50.316;8.114;2024-01-16T13:24:02;6.2;;;4.2;;
12721;SDS011;6425;50.316;8.114;2024-01-16T13:27:00;6.1;;;3.8;;
12721;SDS011;6425;50.316;8.114;2024-01-16T13:30:00;6.5;;;3.7;;
12721;SDS011;6425;50.316;8.114;2024-01-16T13:33:00;6.5;;;3.7;;
12721;SDS011;6425;50.316;8.114;2024-01-16T13:36:00;7.3;;;5.1;;
12721;SDS011;6425;50.316;8.114;2024-01-16T13:39:00;7.3;;;5.1;;
12721;SDS011;6425;50.316;8.114;2024-01-16T13:42:00;9.5;;;4.8;;
12721;SDS011;6425;50.316;8.114;2024-01-16T13:45:00;7.2;;;5.2;;
12721;SDS011;6425;50.316;8.114;2024-01-16T13:48:00;7.2;;;5.2;;
12721;SDS011;6425;50.316;8.114;2024-01-16T13:51:00;11.5;;;5.7;;
12721;SDS011;6425;50.316;8.114;2024-01-16T13:54:00;11.5;;;5.7;;
12721;SDS011;6425;50.316;8.114;2024-01-16T13:57:00;9.4;;;5.9;;
12721;SDS011;6425;50.316;8.114;2024-01-16T14:00:00;5.9;;;5.3;;
12721;SDS011;6425;50.316;8.114;2024-01-16T14:03:00;5.9;;;5.3;;
12721;SDS011;6425;50.316;8.114;2024-01-16T14:06:00;10.7;;;6.2;;
12721;SDS011;6425;50.316;8.114;2024-01-16T14:09:00;10.7;;;6.2;;
12721;SDS011;6425;50.316;8.114;2024-01-16T14:12:00;8;;;4.4;;
12721;SDS011;6425;50.316;8.114;2024-01-16T14:15:00;3.8;;;3.4;;
12721;SDS011;6425;50.316;8.114;2024-01-16T14:18:00;3.8;;;3.4;;
12721;SDS011;6425;50.316;8.114;2024-01-16T14:21:00;5;;;4.5;;
12721;SDS011;6425;50.316;8.114;2024-01-16T14:24:00;5;;;4.5;;
12721;SDS011;6425;50.316;8.114;2024-01-16T14:27:00;5.1;;;4.4;;
12721;SDS011;6425;50.316;8.114;2024-01-16T14:30:00;5.1;;;4.2;;
12721;SDS011;6425;50.316;8.114;2024-01-16T14:33:00;5.1;;;4.2;;
12721;SDS011;6425;50.316;8.114;2024-01-16T14:36:00;4.1;;;3.8;;
12721;SDS011;6425;50.316;8.114;2024-01-16T14:39:00;4.5;;;4.1;;
12721;SDS011;6425;50.316;8.114;2024-01-16T14:42:00;4.5;;;4.1;;
12721;SDS011;6425;50.316;8.114;2024-01-16T14:45:00;6.1;;;3.9;;
12721;SDS011;6425;50.316;8.114;2024-01-16T14:48:00;6.1;;;3.9;;
12721;SDS011;6425;50.316;8.114;2024-01-16T14:51:00;4.2;;;3.8;;
12721;SDS011;6425;50.316;8.114;2024-01-16T14:54:00;6;;;4.5;;
12721;SDS011;6425;50.316;8.114;2024-01-16T14:57:00;6;;;4.5;;
12721;SDS011;6425;50.316;8.114;2024-01-16T15:00:00;8;;;4.3;;
12721;SDS011;6425;50.316;8.114;2024-01-16T15:03:00;8;;;4.3;;
12721;SDS011;6425;50.316;8.114;2024-01-16T15:06:00;9.8;;;4.3;;
12721;SDS011;6425;50.316;8.114;2024-01-16T15:09:00;4.8;;;3.7;;
12721;SDS011;6425;50.316;8.114;2024-01-16T15:12:00;4.8;;;3.7;;
12721;SDS011;6425;50.316;8.114;2024-01-16T15:15:00;10.2;;;4.5;;
12721;SDS011;6425;50.316;8.114;2024-01-16T15:18:00;10.2;;;4.5;;
12721;SDS011;6425;50.316;8.114;2024-01-16T15:21:00;5.6;;;4.3;;
12721;SDS011;6425;50.316;8.114;2024-01-16T15:24:00;6.7;;;3.6;;
12721;SDS011;6425;50.316;8.114;2024-01-16T15:27:00;6.7;;;3.6;;
12721;SDS011;6425;50.316;8.114;2024-01-16T15:30:00;8.3;;;4.2;;
12721;SDS011;6425;50.316;8.114;2024-01-16T15:33:00;8.3;;;4.2;;
12721;SDS011;6425;50.316;8.114;2024-01-16T15:36:02;8.5;;;4.7;;
12721;SDS011;6425;50.316;8.114;2024-01-16T15:39:00;75.8;;;30.1;;
12721;SDS011;6425;50.316;8.114;2024-01-16T15:42:00;75.8;;;30.1;;
12721;SDS011;6425;50.316;8.114;2024-01-16T15:45:00;19;;;9.2;;
12721;SDS011;6425;50.316;8.114;2024-01-16T15:48:00;19;;;9.2;;
12721;SDS011;6425;50.316;8.114;2024-01-16T15:51:00;26.6;;;15.6;;
12721;SDS011;6425;50.316;8.114;2024-01-16T15:54:00;12.1;;;6.7;;
12721;SDS011;6425;50.316;8.114;2024-01-16T15:57:00;12.1;;;6.7;;
12721;SDS011;6425;50.316;8.114;2024-01-16T16:00:00;8.2;;;5.5;;
12721;SDS011;6425;50.316;8.114;2024-01-16T16:03:00;8.2;;;5.5;;
12721;SDS011;6425;50.316;8.114;2024-01-16T16:06:00;84.1;;;35.1;;
12721;SDS011;6425;50.316;8.114;2024-01-16T16:09:00;137.7;;;48;;
12721;SDS011;6425;50.316;8.114;2024-01-16T16:12:00;137.7;;;48;;
12721;SDS011;6425;50.316;8.114;2024-01-16T16:15:00;10.3;;;6.8;;
12721;SDS011;6425;50.316;8.114;2024-01-16T16:18:00;10.3;;;6.8;;
12721;SDS011;6425;50.316;8.114;2024-01-16T16:21:00;22.1;;;10.7;;
12721;SDS011;6425;50.316;8.114;2024-01-16T16:24:00;36.8;;;11.1;;
12721;SDS011;6425;50.316;8.114;2024-01-16T16:27:00;36.8;;;11.1;;
12721;SDS011;6425;50.316;8.114;2024-01-16T16:30:00;21.9;;;8.5;;
12721;SDS011;6425;50.316;8.114;2024-01-16T16:33:00;21.9;;;8.5;;
12721;SDS011;6425;50.316;8.114;2024-01-16T16:36:00;5.9;;;4;;
12721;SDS011;6425;50.316;8.114;2024-01-16T16:39:00;14.7;;;7.5;;
12721;SDS011;6425;50.316;8.114;2024-01-16T16:42:00;14.7;;;7.5;;
12721;SDS011;6425;50.316;8.114;2024-01-16T16:45:00;7.6;;;4.1;;
12721;SDS011;6425;50.316;8.114;2024-01-16T16:48:00;7.6;;;4.1;;
12721;SDS011;6425;50.316;8.114;2024-01-16T16:51:00;7.9;;;3.6;;
12721;SDS011;6425;50.316;8.114;2024-01-16T16:54:00;5.6;;;2.9;;
12721;SDS011;6425;50.316;8.114;2024-01-16T16:57:00;5.6;;;2.9;;
12721;SDS011;6425;50.316;8.114;2024-01-16T17:00:00;6.2;;;4.3;;
12721;SDS011;6425;50.316;8.114;2024-01-16T17:03:00;23.8;;;14.1;;
12721;SDS011;6425;50.316;8.114;2024-01-16T17:06:00;23.8;;;14.1;;
12721;SDS011;6425;50.316;8.114;2024-01-16T17:09:00;13.7;;;8.7;;
12721;SDS011;6425;50.316;8.114;2024-01-16T17:12:00;13.7;;;8.7;;
12721;SDS011;6425;50.316;8.114;2024-01-16T17:15:00;22.9;;;16.4;;
12721;SDS011;6425;50.316;8.114;2024-01-16T17:18:00;4.9;;;3.7;;
12721;SDS011;6425;50.316;8.114;2024-01-16T17:21:00;4.9;;;3.7;;
12721;SDS011;6425;50.316;8.114;2024-01-16T17:24:00;6.5;;;4.4;;
12721;SDS011;6425;50.316;8.114;2024-01-16T17:27:00;6.5;;;4.4;;
12721;SDS011;6425;50.316;8.114;2024-01-16T17:30:00;7.4;;;4.8;;
12721;SDS011;6425;50.316;8.114;2024-01-16T17:33:00;32.7;;;20.8;;
12721;SDS011;6425;50.316;8.114;2024-01-16T17:36:00;32.7;;;20.8;;
12721;SDS011;6425;50.316;8.114;2024-01-16T17:39:00;11.3;;;8.4;;
12721;SDS011;6425;50.316;8.114;2024-01-16T17:42:00;11.3;;;8.4;;
12721;SDS011;6425;50.316;8.114;2024-01-16T17:45:00;35.4;;;18.4;;
12721;SDS011;6425;50.316;8.114;2024-01-16T17:48:00;28.3;;;13.2;;
12721;SDS011;6425;50.316;8.114;2024-01-16T17:51:00;28.3;;;13.2;;
12721;SDS011;6425;50.316;8.114;2024-01-16T17:54:00;22.7;;;10.8;;
12721;SDS011;6425;50.316;8.114;2024-01-16T17:57:00;22.7;;;10.8;;
12721;SDS011;6425;50.316;8.114;2024-01-16T18:00:02;16.1;;;8.3;;
12721;SDS011;6425;50.316;8.114;2024-01-16T18:03:00;7.3;;;3.8;;
12721;SDS011;6425;50.316;8.114;2024-01-16T18:06:00;7.3;;;3.8;;
12721;SDS011;6425;50.316;8.114;2024-01-16T18:09:00;6.6;;;4.1;;
12721;SDS011;6425;50.316;8.114;2024-01-16T18:12:00;6.6;;;4.1;;
12721;SDS011;6425;50.316;8.114;2024-01-16T18:15:00;7.6;;;5.1;;
12721;SDS011;6425;50.316;8.114;2024-01-16T18:18:00;5.7;;;3;;
12721;SDS011;6425;50.316;8.114;2024-01-16T18:21:00;5.7;;;3;;
12721;SDS011;6425;50.316;8.114;2024-01-16T18:24:00;5.6;;;2.9;;
12721;SDS011;6425;50.316;8.114;2024-01-16T18:27:00;5.6;;;2.9;;
12721;SDS011;6425;50.316;8.114;2024-01-16T18:30:00;3.7;;;2.3;;
12721;SDS011;6425;50.316;8.114;2024-01-16T18:33:00;4.7;;;3.1;;
12721;SDS011;6425;50.316;8.114;2024-01-16T18:36:00;4.7;;;3.1;;
12721;SDS011;6425;50.316;8.114;2024-01-16T18:39:00;4.9;;;2.3;;
12721;SDS011;6425;50.316;8.114;2024-01-16T18:42:00;4.9;;;2.3;;
12721;SDS011;6425;50.316;8.114;2024-01-16T18:45:00;4.9;;;3.1;;
12721;SDS011;6425;50.316;8.114;2024-01-16T18:48:00;8.1;;;5.5;;
12721;SDS011;6425;50.316;8.114;2024-01-16T18:51:00;8.1;;;5.5;;
12721;SDS011;6425;50.316;8.114;2024-01-16T18:54:00;7.1;;;3.7;;